createdAt,value
2018-08-12T00:00:20.306Z,40.60
2018-08-12T00:02:49.312Z,40.90
2018-08-12T00:05:18.174Z,39.10
2018-08-12T00:07:47.243Z,39.40
2018-08-12T00:10:16.310Z,39.30
2018-08-12T00:12:45.227Z,39.00
2018-08-12T00:15:16.258Z,39.60
2018-08-12T00:17:45.426Z,40.30
2018-08-12T00:20:16.527Z,39.90
2018-08-12T00:22:45.805Z,40.60
2018-08-12T00:25:16.476Z,39.60
2018-08-12T00:27:45.318Z,39.60
2018-08-12T00:30:18.088Z,39.30
2018-08-12T00:32:46.952Z,38.90
2018-08-12T00:35:17.197Z,39.50
2018-08-12T00:37:46.140Z,39.60
2018-08-12T00:40:16.057Z,40.80
2018-08-12T00:42:45.287Z,40.10
2018-08-12T00:45:16.433Z,40.60
2018-08-12T00:47:45.614Z,40.60
2018-08-12T00:50:15.753Z,40.50
2018-08-12T00:52:44.653Z,40.70
2018-08-12T00:55:15.045Z,40.90
2018-08-12T00:57:45.337Z,41.20
2018-08-12T01:00:17.124Z,41.40
2018-08-12T01:02:46.016Z,40.20
2018-08-12T01:05:16.177Z,40.80
2018-08-12T01:07:45.748Z,40.30
2018-08-12T01:10:15.394Z,41.60
2018-08-12T01:12:44.527Z,41.10
2018-08-12T01:15:15.367Z,41.60
2018-08-12T01:17:44.994Z,41.60
2018-08-12T01:20:20.612Z,41.70
2018-08-12T01:22:49.531Z,41.80
2018-08-12T01:25:18.520Z,42.00
2018-08-12T01:27:47.520Z,42.20
2018-08-12T01:30:18.258Z,42.50
2018-08-12T01:32:47.837Z,42.70
2018-08-12T01:35:17.230Z,43.20
2018-08-12T01:37:46.787Z,43.20
2018-08-12T01:40:16.655Z,43.60
2018-08-12T01:42:46.059Z,43.50
2018-08-12T01:45:16.651Z,43.60
2018-08-12T01:47:45.570Z,43.00
2018-08-12T01:50:15.887Z,42.70
2018-08-12T01:52:44.779Z,42.90
2018-08-12T01:55:13.657Z,43.30
2018-08-12T01:57:42.415Z,43.50
2018-08-12T02:00:14.263Z,43.40
2018-08-12T02:02:43.271Z,42.90
2018-08-12T02:05:12.102Z,43.60
2018-08-12T02:07:41.011Z,43.50
2018-08-12T02:10:10.561Z,43.40
2018-08-12T02:12:39.843Z,43.40
2018-08-12T02:15:09.786Z,43.30
2018-08-12T02:17:38.964Z,42.90
2018-08-12T02:20:08.553Z,43.40
2018-08-12T02:22:37.918Z,43.60
2018-08-12T02:25:07.570Z,44.10
2018-08-12T02:27:36.401Z,44.10
2018-08-12T02:30:06.603Z,44.20
2018-08-12T02:32:35.446Z,44.20
2018-08-12T02:35:04.660Z,43.70
2018-08-12T02:37:33.492Z,44.10
2018-08-12T02:40:02.360Z,44.10
2018-08-12T02:42:31.147Z,44.10
2018-08-12T02:45:00.034Z,43.60
2018-08-12T02:47:29.092Z,44.30
2018-08-12T02:49:57.876Z,44.10
2018-08-12T02:52:26.639Z,44.00
2018-08-12T02:54:55.632Z,44.10
2018-08-12T02:57:24.407Z,43.80
2018-08-12T02:59:53.204Z,44.30
2018-08-12T03:02:22.212Z,44.60
2018-08-12T03:04:51.033Z,44.10
2018-08-12T03:07:19.842Z,44.70
2018-08-12T03:09:48.792Z,44.90
2018-08-12T03:12:17.587Z,45.40
2018-08-12T03:14:46.415Z,45.30
2018-08-12T03:17:15.254Z,45.10
2018-08-12T03:19:44.034Z,45.70
2018-08-12T03:22:12.822Z,46.20
2018-08-12T03:24:41.889Z,45.00
2018-08-12T03:27:10.712Z,45.60
2018-08-12T03:29:39.525Z,45.50
2018-08-12T03:32:08.521Z,45.90
2018-08-12T03:34:37.332Z,46.00
2018-08-12T03:37:06.471Z,46.10
2018-08-12T03:39:35.386Z,45.80
2018-08-12T03:42:04.260Z,45.30
2018-08-12T03:44:33.093Z,45.00
2018-08-12T03:47:02.228Z,45.00
2018-08-12T03:49:31.055Z,44.70
2018-08-12T03:51:59.878Z,44.80
2018-08-12T03:54:29.026Z,44.50
2018-08-12T03:56:57.866Z,44.70
2018-08-12T03:59:26.613Z,45.20
2018-08-12T04:01:55.513Z,45.10
2018-08-12T04:04:24.321Z,45.30
2018-08-12T04:06:53.167Z,45.80
2018-08-12T04:09:21.999Z,45.80
2018-08-12T04:11:50.801Z,45.70
2018-08-12T04:14:19.612Z,45.70
2018-08-12T04:16:52.848Z,45.80
2018-08-12T04:19:21.624Z,45.90
2018-08-12T04:21:50.441Z,45.80
2018-08-12T04:24:19.724Z,45.50
2018-08-12T04:26:48.496Z,45.50
2018-08-12T04:29:17.347Z,44.20
2018-08-12T04:31:46.312Z,44.60
2018-08-12T04:34:15.144Z,44.90
2018-08-12T04:36:44.190Z,44.90
2018-08-12T04:39:14.184Z,43.60
2018-08-12T04:44:12.745Z,43.00
2018-08-12T04:46:41.536Z,43.20
2018-08-12T04:49:10.771Z,43.90
2018-08-12T04:51:39.672Z,43.90
2018-08-12T04:56:37.257Z,42.70
2018-08-12T04:59:06.778Z,43.10
2018-08-12T05:01:35.605Z,43.00
2018-08-12T05:04:04.421Z,43.00
2018-08-12T05:06:33.266Z,42.10
2018-08-12T05:09:02.069Z,42.70
2018-08-12T05:11:30.868Z,42.60
2018-08-12T05:13:59.754Z,42.10
2018-08-12T05:16:28.528Z,42.10
2018-08-12T05:18:57.309Z,41.40
2018-08-12T05:21:26.299Z,42.30
2018-08-12T05:23:55.169Z,41.70
2018-08-12T05:26:24.016Z,41.00
2018-08-12T05:28:52.854Z,40.90
2018-08-12T05:31:21.764Z,40.60
2018-08-12T05:33:50.553Z,40.40
2018-08-12T05:36:19.803Z,40.60
2018-08-12T05:38:48.689Z,40.60
2018-08-12T05:41:17.529Z,39.90
2018-08-12T05:43:46.516Z,40.50
2018-08-12T05:46:15.333Z,40.10
2018-08-12T05:48:44.193Z,40.70
2018-08-12T05:51:13.489Z,40.70
2018-08-12T05:53:42.174Z,40.80
2018-08-12T05:56:10.983Z,39.80
2018-08-12T05:58:39.894Z,39.30
2018-08-12T06:01:08.745Z,39.30
2018-08-12T06:03:37.608Z,40.60
2018-08-12T06:06:06.804Z,39.90
2018-08-12T06:08:35.613Z,38.30
2018-08-12T06:11:04.607Z,38.60
2018-08-12T06:13:33.437Z,38.70
2018-08-12T06:16:02.319Z,38.40
2018-08-12T06:18:31.115Z,38.80
2018-08-12T06:21:00.041Z,36.60
2018-08-12T06:23:28.840Z,37.70
2018-08-12T06:27:27.156Z,38.60
2018-08-12T06:29:55.951Z,38.20
2018-08-12T06:32:24.907Z,36.80
2018-08-12T06:34:53.723Z,35.60
2018-08-12T06:37:22.604Z,35.80
2018-08-12T06:39:52.215Z,34.90
2018-08-12T06:42:22.244Z,34.60
2018-08-12T06:44:51.046Z,34.10
2018-08-12T06:47:19.899Z,32.30
2018-08-12T06:49:48.763Z,32.00
2018-08-12T06:52:17.568Z,31.20
2018-08-12T06:54:46.515Z,31.10
2018-08-12T06:57:15.499Z,31.00
2018-08-12T06:59:44.324Z,29.30
2018-08-12T07:02:13.154Z,29.00
2018-08-12T07:04:42.079Z,27.80
2018-08-12T07:07:10.891Z,28.30
2018-08-12T07:09:39.711Z,27.30
2018-08-12T07:12:08.593Z,26.40
2018-08-12T07:14:37.390Z,26.30
2018-08-12T07:17:06.213Z,25.40
2018-08-12T07:19:35.121Z,24.70
2018-08-12T07:22:03.957Z,23.50
2018-08-12T07:24:32.798Z,23.80
2018-08-12T07:27:01.823Z,22.50
2018-08-12T07:29:30.650Z,22.30
2018-08-12T07:31:59.512Z,21.70
2018-08-12T07:34:28.495Z,21.00
2018-08-12T07:36:57.297Z,18.60
2018-08-12T07:39:26.099Z,18.90
2018-08-12T07:41:56.084Z,18.20
2018-08-12T07:44:24.915Z,16.30
2018-08-12T07:46:53.746Z,16.60
2018-08-12T07:49:22.580Z,15.90
2018-08-12T07:51:51.453Z,14.30
2018-08-12T07:54:20.259Z,14.80
2018-08-12T07:56:49.574Z,13.30
2018-08-12T07:59:18.442Z,13.00
2018-08-12T08:01:47.240Z,11.80
2018-08-12T08:04:16.107Z,11.90
2018-08-12T08:06:44.906Z,11.00
2018-08-12T08:09:13.872Z,11.20
2018-08-12T08:11:43.250Z,10.50
2018-08-12T08:14:12.110Z,10.90
2018-08-12T08:16:41.038Z,11.10
2018-08-12T08:19:10.299Z,10.40
2018-08-12T08:21:39.160Z,9.80
2018-08-12T08:24:07.960Z,7.80
2018-08-12T08:26:38.362Z,7.10
2018-08-12T08:29:07.800Z,7.30
2018-08-12T08:31:36.696Z,8.00
2018-08-12T08:34:05.836Z,7.70
2018-08-12T08:36:34.691Z,7.90
2018-08-12T08:39:04.820Z,7.70
2018-08-12T08:41:33.945Z,8.70
2018-08-12T08:44:02.927Z,7.50
2018-08-12T08:46:31.853Z,7.20
2018-08-12T08:49:00.777Z,7.00
2018-08-12T08:51:29.660Z,6.90
2018-08-12T08:53:58.653Z,7.30
2018-08-12T08:56:27.749Z,6.60
2018-08-12T08:58:56.644Z,6.50
2018-08-12T09:01:25.545Z,5.20
2018-08-12T09:03:54.651Z,5.60
2018-08-12T09:06:23.727Z,5.90
2018-08-12T09:08:52.807Z,6.90
2018-08-12T09:11:21.695Z,6.50
2018-08-12T09:13:50.610Z,7.00
2018-08-12T09:16:19.440Z,6.60
2018-08-12T09:18:48.302Z,7.10
2018-08-12T09:21:17.099Z,7.60
2018-08-12T09:26:14.300Z,8.40
2018-08-12T09:28:43.182Z,7.50
2018-08-12T09:31:11.981Z,8.10
2018-08-12T09:33:40.813Z,8.30
2018-08-12T09:36:09.672Z,7.80
2018-08-12T09:38:38.517Z,7.70
2018-08-12T09:41:07.415Z,8.50
2018-08-12T09:43:38.675Z,8.50
2018-08-12T09:46:07.741Z,8.50
2018-08-12T09:48:36.758Z,8.80
2018-08-12T09:51:05.688Z,9.00
2018-08-12T09:53:34.509Z,9.80
2018-08-12T09:56:03.413Z,8.80
2018-08-12T09:58:32.406Z,8.10
2018-08-12T10:01:01.175Z,7.50
2018-08-12T10:03:30.032Z,7.50
2018-08-12T10:05:59.375Z,7.80
2018-08-12T10:08:31.274Z,7.30
2018-08-12T10:11:00.197Z,7.90
2018-08-12T10:13:29.038Z,7.40
2018-08-12T10:15:58.113Z,8.30
2018-08-12T10:18:27.025Z,8.20
2018-08-12T10:20:55.969Z,6.60
2018-08-12T10:23:24.908Z,7.40
2018-08-12T10:25:53.862Z,8.50
2018-08-12T10:28:22.741Z,7.40
2018-08-12T10:30:51.746Z,7.50
2018-08-12T10:33:20.628Z,7.80
2018-08-12T10:35:49.531Z,7.90
2018-08-12T10:38:18.473Z,8.90
2018-08-12T10:40:47.279Z,8.30
2018-08-12T10:43:16.123Z,8.70
2018-08-12T10:45:44.993Z,9.20
2018-08-12T10:48:13.769Z,9.40
2018-08-12T10:50:42.585Z,8.60
2018-08-12T10:53:11.465Z,9.30
2018-08-12T10:55:40.469Z,9.20
2018-08-12T10:58:16.005Z,8.70
2018-08-12T11:00:44.878Z,6.50
2018-08-12T11:03:13.884Z,7.60
2018-08-12T11:05:42.885Z,7.10
2018-08-12T11:08:11.826Z,7.50
2018-08-12T11:10:40.715Z,8.40
2018-08-12T11:13:09.681Z,8.90
2018-08-12T11:15:38.507Z,7.60
2018-08-12T11:18:07.497Z,8.00
2018-08-12T11:20:36.557Z,8.00
2018-08-12T11:23:05.571Z,9.60
2018-08-12T11:25:34.411Z,10.20
2018-08-12T11:28:03.460Z,10.90
2018-08-12T11:30:32.368Z,11.90
2018-08-12T11:33:01.757Z,11.80
2018-08-12T11:35:30.792Z,12.40
2018-08-12T11:37:59.738Z,11.50
2018-08-12T11:40:28.658Z,12.10
2018-08-12T11:42:57.636Z,13.10
2018-08-12T11:45:26.450Z,12.60
2018-08-12T11:47:55.274Z,14.60
2018-08-12T11:50:24.517Z,16.10
2018-08-12T11:52:53.394Z,15.60
2018-08-12T11:55:22.273Z,16.20
2018-08-12T11:57:51.148Z,17.30
2018-08-12T12:00:21.437Z,17.80
2018-08-12T12:02:51.341Z,17.00
2018-08-12T12:05:20.305Z,16.50
2018-08-12T12:07:49.147Z,17.70
2018-08-12T12:10:20.889Z,18.00
2018-08-12T12:12:50.709Z,18.90
2018-08-12T12:15:19.669Z,18.50
2018-08-12T12:17:48.893Z,16.60
2018-08-12T12:20:18.724Z,17.40
2018-08-12T12:22:48.134Z,18.10
2018-08-12T12:25:18.368Z,18.50
2018-08-12T12:27:47.459Z,18.80
2018-08-12T12:30:18.864Z,19.00
2018-08-12T12:32:48.748Z,19.60
2018-08-12T12:35:17.651Z,20.30
2018-08-12T12:40:16.629Z,19.70
2018-08-12T12:42:46.144Z,20.20
2018-08-12T12:45:15.493Z,20.00
2018-08-12T12:47:44.730Z,20.60
2018-08-12T12:50:18.184Z,20.20
2018-08-12T12:52:48.178Z,19.30
2018-08-12T12:55:17.551Z,19.70
2018-08-12T12:57:46.580Z,20.20
2018-08-12T13:00:17.043Z,19.70
2018-08-12T13:02:45.937Z,21.20
2018-08-12T13:05:16.053Z,21.80
2018-08-12T13:07:46.373Z,20.90
2018-08-12T13:10:16.230Z,20.90
2018-08-12T13:12:45.181Z,21.40
2018-08-12T13:15:14.955Z,20.00
2018-08-12T13:17:43.848Z,20.90
2018-08-12T13:20:17.645Z,21.10
2018-08-12T13:22:47.322Z,20.40
2018-08-12T13:25:18.080Z,20.70
2018-08-12T13:27:46.991Z,20.10
2018-08-12T13:30:16.959Z,21.10
2018-08-12T13:32:46.843Z,20.10
2018-08-12T13:35:15.792Z,20.60
2018-08-12T13:37:44.702Z,20.70
2018-08-12T13:40:15.146Z,20.60
2018-08-12T13:42:44.964Z,20.40
2018-08-12T13:45:14.431Z,21.50
2018-08-12T13:47:44.508Z,21.60
2018-08-12T13:50:17.629Z,21.80
2018-08-12T13:52:47.307Z,22.40
2018-08-12T13:55:16.437Z,22.40
2018-08-12T13:57:45.662Z,21.70
2018-08-12T14:00:16.658Z,20.40
2018-08-12T14:02:45.523Z,20.40
2018-08-12T14:05:15.990Z,20.30
2018-08-12T14:07:45.212Z,21.40
2018-08-12T14:10:14.088Z,21.30
2018-08-12T14:12:42.903Z,21.70
2018-08-12T14:15:14.317Z,21.90
2018-08-12T14:17:44.310Z,21.10
2018-08-12T14:20:14.798Z,20.80
2018-08-12T14:25:12.309Z,20.20
2018-08-12T14:27:42.508Z,20.20
2018-08-12T14:30:14.155Z,20.50
2018-08-12T14:32:43.666Z,21.00
2018-08-12T14:35:12.531Z,21.00
2018-08-12T14:37:41.647Z,21.50
2018-08-12T14:40:11.697Z,21.90
2018-08-12T14:42:40.596Z,21.60
2018-08-12T14:45:10.963Z,21.70
2018-08-12T14:50:12.725Z,22.20
2018-08-12T14:52:41.747Z,22.50
2018-08-12T14:55:11.634Z,22.30
2018-08-12T14:57:40.984Z,22.40
2018-08-12T15:00:13.521Z,22.50
2018-08-12T15:02:42.370Z,22.50
2018-08-12T15:05:11.186Z,22.50
2018-08-12T15:07:40.063Z,22.30
2018-08-12T15:10:10.311Z,22.40
2018-08-12T15:12:39.516Z,22.70
2018-08-12T15:15:10.052Z,21.90
2018-08-12T15:17:40.241Z,22.30
2018-08-12T15:20:09.427Z,22.80
2018-08-12T15:24:07.659Z,22.70
2018-08-12T15:26:36.473Z,22.20
2018-08-12T15:29:05.319Z,22.30
2018-08-12T15:31:34.244Z,22.30
2018-08-12T15:34:03.134Z,22.30
2018-08-12T15:36:32.098Z,22.80
2018-08-12T15:39:09.019Z,22.30
2018-08-12T15:41:38.156Z,22.80
2018-08-12T15:44:07.072Z,22.90
2018-08-12T15:46:36.056Z,22.70
2018-08-12T15:49:04.916Z,23.10
2018-08-12T15:51:33.990Z,23.10
2018-08-12T15:54:02.850Z,23.10
2018-08-12T15:56:31.934Z,22.70
2018-08-12T15:59:00.770Z,22.90
2018-08-12T16:01:29.644Z,23.00
2018-08-12T16:03:58.518Z,23.00
2018-08-12T16:06:27.490Z,23.40
2018-08-12T16:08:56.520Z,23.40
2018-08-12T16:11:25.451Z,23.60
2018-08-12T16:13:56.596Z,24.10
2018-08-12T16:16:26.932Z,24.50
2018-08-12T16:18:55.735Z,23.60
2018-08-12T16:21:24.587Z,24.10
2018-08-12T16:23:53.866Z,23.60
2018-08-12T16:26:22.717Z,24.10
2018-08-12T16:28:51.569Z,23.90
2018-08-12T16:31:20.479Z,23.60
2018-08-12T16:33:49.408Z,23.40
2018-08-12T16:36:18.221Z,23.50
2018-08-12T16:38:47.259Z,23.70
2018-08-12T16:41:16.153Z,24.20
2018-08-12T16:43:45.032Z,24.00
2018-08-12T16:48:42.735Z,24.50
2018-08-12T16:51:11.611Z,24.60
2018-08-12T16:53:40.645Z,24.80
2018-08-12T16:56:09.499Z,24.90
2018-08-12T16:58:38.428Z,24.90
2018-08-12T17:01:07.935Z,25.50
2018-08-12T17:03:36.821Z,25.60
2018-08-12T17:06:05.779Z,26.30
2018-08-12T17:08:34.655Z,26.30
2018-08-12T18:01:16.010Z,28.00
2018-08-12T18:06:37.659Z,28.80
2018-08-12T18:11:35.670Z,29.70
2018-08-12T18:14:04.974Z,30.20
2018-08-12T18:16:33.949Z,30.50
2018-08-12T18:19:02.927Z,30.80
2018-08-12T18:21:32.004Z,31.50
2018-08-12T18:26:47.154Z,32.40
2018-08-12T18:29:16.112Z,32.80
2018-08-12T18:31:45.184Z,33.40
2018-08-12T18:34:14.231Z,33.70
2018-08-12T18:36:43.167Z,33.90
2018-08-12T18:39:13.095Z,34.30
2018-08-12T18:41:42.234Z,34.90
2018-08-12T18:44:11.396Z,35.20
2018-08-12T18:46:40.296Z,34.70
2018-08-12T18:49:09.306Z,34.50
2018-08-12T18:51:38.243Z,34.60
2018-08-12T18:54:07.229Z,34.80
2018-08-12T18:56:36.460Z,36.00
2018-08-12T18:59:05.373Z,35.50
2018-08-12T19:04:02.852Z,35.80
2018-08-12T19:06:31.778Z,36.10
2018-08-12T19:09:00.710Z,36.20
2018-08-12T19:11:29.979Z,36.80
2018-08-12T19:13:58.879Z,37.10
2018-08-12T19:16:27.802Z,37.40
2018-08-12T19:18:56.728Z,37.00
2018-08-12T19:21:25.584Z,37.60
2018-08-12T19:26:23.217Z,37.30
2018-08-12T19:28:52.224Z,37.20
2018-08-12T19:31:21.140Z,37.70
2018-08-12T19:33:50.113Z,37.80
2018-08-12T19:36:18.954Z,37.60
2018-08-12T19:38:47.869Z,37.60
2018-08-12T19:41:16.852Z,38.30
2018-08-12T19:43:45.732Z,37.70
2018-08-12T19:46:14.652Z,38.40
2018-08-12T19:48:43.710Z,38.00
2018-08-12T19:51:12.634Z,38.60
2018-08-12T19:53:41.531Z,38.10
2018-08-12T19:56:10.651Z,38.10
2018-08-12T19:58:39.529Z,38.30
2018-08-12T20:01:08.434Z,38.50
2018-08-12T20:03:37.447Z,38.40
2018-08-12T20:06:06.410Z,38.50
2018-08-12T20:08:35.266Z,38.80
2018-08-12T20:11:04.442Z,38.80
2018-08-12T20:13:33.403Z,39.00
2018-08-12T20:16:02.306Z,39.20
2018-08-12T20:18:31.270Z,39.20
2018-08-12T20:21:00.287Z,39.10
2018-08-12T20:23:29.593Z,39.00
2018-08-12T20:25:58.966Z,38.90
2018-08-12T20:28:27.910Z,39.00
2018-08-12T20:30:56.902Z,39.60
2018-08-12T20:33:26.168Z,39.60
2018-08-12T20:35:56.776Z,39.10
2018-08-12T20:38:25.610Z,39.70
2018-08-12T20:40:54.557Z,39.70
2018-08-12T20:43:23.498Z,39.70
2018-08-12T20:45:52.404Z,40.40
2018-08-12T20:50:49.744Z,39.20
2018-08-12T20:53:18.829Z,39.10
2018-08-12T20:55:47.725Z,39.30
2018-08-12T20:58:16.573Z,39.80
2018-08-12T21:00:45.488Z,39.40
2018-08-12T21:03:14.453Z,40.00
2018-08-12T21:05:43.332Z,39.40
2018-08-12T21:08:12.204Z,40.00
2018-08-12T21:10:41.094Z,40.00
2018-08-12T21:13:09.958Z,39.50
2018-08-12T21:15:38.822Z,39.60
2018-08-12T21:18:07.730Z,40.10
2018-08-12T21:20:36.603Z,40.30
2018-08-12T21:23:05.509Z,40.20
2018-08-12T21:25:34.472Z,40.30
2018-08-12T21:28:03.297Z,40.20
2018-08-12T21:30:32.263Z,40.20
2018-08-12T21:33:01.372Z,40.20
2018-08-12T21:35:30.236Z,40.00
2018-08-12T21:37:59.084Z,39.90
2018-08-12T21:40:28.082Z,40.40
2018-08-12T21:42:56.898Z,40.40
2018-08-12T21:45:25.747Z,40.30
2018-08-12T21:47:54.895Z,39.80
2018-08-12T21:50:23.742Z,40.40
2018-08-12T21:52:52.589Z,40.20
2018-08-12T21:55:21.536Z,40.70
2018-08-12T21:57:50.492Z,40.60
2018-08-12T22:00:19.406Z,40.80
2018-08-12T22:02:48.354Z,41.20
2018-08-12T22:05:17.198Z,41.00
2018-08-12T22:07:46.091Z,41.60
2018-08-12T22:10:14.976Z,41.40
2018-08-12T22:12:43.847Z,42.00
2018-08-12T22:15:12.737Z,42.10
2018-08-12T22:17:41.729Z,42.10
2018-08-12T22:20:10.626Z,42.70
2018-08-12T22:22:39.466Z,42.50
2018-08-12T22:25:08.589Z,43.00
2018-08-12T22:27:37.461Z,43.00
2018-08-12T22:30:07.571Z,43.60
2018-08-12T22:32:36.477Z,43.90
2018-08-12T22:35:05.614Z,43.90
2018-08-12T22:37:34.458Z,43.50
2018-08-12T22:40:03.775Z,43.40
2018-08-12T22:42:32.574Z,43.50
2018-08-12T22:45:01.435Z,43.50
2018-08-12T22:47:30.315Z,44.10
2018-08-12T22:49:59.127Z,44.60
2018-08-12T22:52:27.929Z,42.20
2018-08-12T22:54:57.018Z,42.00
2018-08-12T22:57:25.889Z,42.00
2018-08-12T22:59:54.755Z,42.60
2018-08-12T23:02:23.740Z,42.90
2018-08-12T23:04:52.869Z,43.20
2018-08-12T23:09:50.981Z,42.40
2018-08-12T23:12:19.810Z,41.80
2018-08-12T23:14:48.661Z,41.70
2018-08-12T23:17:17.510Z,41.50
2018-08-12T23:19:46.310Z,41.80
2018-08-12T23:22:15.154Z,42.50
2018-08-12T23:24:44.214Z,42.30
2018-08-12T23:27:13.110Z,42.40
2018-08-12T23:29:42.049Z,43.10
2018-08-12T23:32:11.058Z,43.40
2018-08-12T23:34:39.859Z,43.80
2018-08-12T23:37:08.816Z,43.90
2018-08-12T23:39:37.866Z,44.50
2018-08-12T23:42:06.706Z,44.90
2018-08-12T23:44:35.500Z,44.90
2018-08-12T23:47:04.368Z,44.80
2018-08-12T23:49:33.176Z,44.50
2018-08-12T23:52:02.042Z,43.00
2018-08-12T23:54:31.241Z,43.60
2018-08-12T23:57:00.098Z,43.10
2018-08-12T23:59:28.942Z,43.30
